Terminal Aerodrome Forecast
Issued by NWS Atlanta, GA

Home | Current Version | Previous Version | Text Only | Print | Product List | Glossary On
Versions: 1 2 3 4 5 6 7 8 9 10 11 12 13 14 15 16 17 18 19 20 21 22
000
FTUS42 KFFC 010607 AAA
TAFCSG
TAF AMD
KCSG 010607Z 0106/0206 03003KT P6SM BKN060
      TEMPO 0106/0109 5SM BR BKN002
     FM011500 06005KT P6SM BKN040 PROB30 0119/0124 5SM -TSRA
      BKN040CB
     FM020200 00000KT P6SM SCT250=

USA.gov is the U.S. government's official web portal to all federal, state and local government web resources and services.